sensor_id;sensor_type;location;lat;lon;timestamp;temperature;humidity
65291;SHT30;51893;59.754;10.110;2023-07-29T00:02:17;15.45;81.40
65291;SHT30;51893;59.754;10.110;2023-07-29T00:04:45;15.43;81.46
65291;SHT30;51893;59.754;10.110;2023-07-29T00:07:14;15.44;81.60
65291;SHT30;51893;59.754;10.110;2023-07-29T00:09:41;15.46;81.63
65291;SHT30;51893;59.754;10.110;2023-07-29T00:12:10;15.47;81.73
65291;SHT30;51893;59.754;10.110;2023-07-29T00:14:38;15.49;81.61
65291;SHT30;51893;59.754;10.110;2023-07-29T00:17:06;15.51;81.51
65291;SHT30;51893;59.754;10.110;2023-07-29T00:19:34;15.48;81.49
65291;SHT30;51893;59.754;10.110;2023-07-29T00:22:02;15.44;81.63
65291;SHT30;51893;59.754;10.110;2023-07-29T00:24:30;15.48;81.78
65291;SHT30;51893;59.754;10.110;2023-07-29T00:26:58;15.50;82.36
65291;SHT30;51893;59.754;10.110;2023-07-29T00:29:26;15.54;82.56
65291;SHT30;51893;59.754;10.110;2023-07-29T00:31:54;15.59;82.59
65291;SHT30;51893;59.754;10.110;2023-07-29T00:34:23;15.65;82.60
65291;SHT30;51893;59.754;10.110;2023-07-29T00:36:51;15.66;82.86
65291;SHT30;51893;59.754;10.110;2023-07-29T00:39:20;15.65;83.30
65291;SHT30;51893;59.754;10.110;2023-07-29T00:41:48;15.67;83.47
65291;SHT30;51893;59.754;10.110;2023-07-29T00:44:16;15.75;83.51
65291;SHT30;51893;59.754;10.110;2023-07-29T00:46:44;15.84;83.17
65291;SHT30;51893;59.754;10.110;2023-07-29T00:49:15;15.89;83.21
65291;SHT30;51893;59.754;10.110;2023-07-29T00:51:43;15.88;83.43
65291;SHT30;51893;59.754;10.110;2023-07-29T00:54:12;15.86;83.60
65291;SHT30;51893;59.754;10.110;2023-07-29T00:56:41;15.79;83.76
65291;SHT30;51893;59.754;10.110;2023-07-29T00:59:09;15.73;83.64
65291;SHT30;51893;59.754;10.110;2023-07-29T01:01:37;15.69;83.28
65291;SHT30;51893;59.754;10.110;2023-07-29T01:04:06;15.72;83.14
65291;SHT30;51893;59.754;10.110;2023-07-29T01:10:00;15.78;82.98
65291;SHT30;51893;59.754;10.110;2023-07-29T01:15:45;15.73;83.16
65291;SHT30;51893;59.754;10.110;2023-07-29T01:18:31;15.77;83.07
65291;SHT30;51893;59.754;10.110;2023-07-29T01:21:03;15.75;82.90
65291;SHT30;51893;59.754;10.110;2023-07-29T01:23:34;15.68;82.81
65291;SHT30;51893;59.754;10.110;2023-07-29T01:26:03;15.65;82.61
65291;SHT30;51893;59.754;10.110;2023-07-29T01:28:31;15.61;82.69
65291;SHT30;51893;59.754;10.110;2023-07-29T01:31:08;15.62;82.81
65291;SHT30;51893;59.754;10.110;2023-07-29T01:34:06;15.68;82.74
65291;SHT30;51893;59.754;10.110;2023-07-29T01:36:52;15.67;82.79
65291;SHT30;51893;59.754;10.110;2023-07-29T01:39:29;15.64;82.78
65291;SHT30;51893;59.754;10.110;2023-07-29T01:42:05;15.66;82.80
65291;SHT30;51893;59.754;10.110;2023-07-29T01:44:33;15.63;82.86
65291;SHT30;51893;59.754;10.110;2023-07-29T01:47:03;15.60;82.88
65291;SHT30;51893;59.754;10.110;2023-07-29T01:49:31;15.59;82.98
65291;SHT30;51893;59.754;10.110;2023-07-29T01:51:59;15.56;83.01
65291;SHT30;51893;59.754;10.110;2023-07-29T01:54:28;15.60;82.90
65291;SHT30;51893;59.754;10.110;2023-07-29T01:56:56;15.62;83.02
65291;SHT30;51893;59.754;10.110;2023-07-29T01:59:24;15.62;83.17
65291;SHT30;51893;59.754;10.110;2023-07-29T02:01:52;15.59;83.27
65291;SHT30;51893;59.754;10.110;2023-07-29T02:04:20;15.59;83.31
65291;SHT30;51893;59.754;10.110;2023-07-29T02:06:50;15.58;83.55
65291;SHT30;51893;59.754;10.110;2023-07-29T02:09:18;15.54;83.83
65291;SHT30;51893;59.754;10.110;2023-07-29T02:11:46;15.57;83.84
65291;SHT30;51893;59.754;10.110;2023-07-29T02:14:14;15.61;83.67
65291;SHT30;51893;59.754;10.110;2023-07-29T02:16:42;15.58;83.56
65291;SHT30;51893;59.754;10.110;2023-07-29T02:19:12;15.61;83.41
65291;SHT30;51893;59.754;10.110;2023-07-29T02:21:40;15.61;83.41
65291;SHT30;51893;59.754;10.110;2023-07-29T02:24:08;15.61;83.36
65291;SHT30;51893;59.754;10.110;2023-07-29T02:26:36;15.57;83.55
65291;SHT30;51893;59.754;10.110;2023-07-29T02:29:05;15.54;83.64
65291;SHT30;51893;59.754;10.110;2023-07-29T02:31:33;15.53;83.68
65291;SHT30;51893;59.754;10.110;2023-07-29T02:34:02;15.54;83.60
65291;SHT30;51893;59.754;10.110;2023-07-29T02:36:31;15.59;83.50
65291;SHT30;51893;59.754;10.110;2023-07-29T02:38:59;15.61;83.56
65291;SHT30;51893;59.754;10.110;2023-07-29T02:41:27;15.65;83.46
65291;SHT30;51893;59.754;10.110;2023-07-29T02:43:55;15.68;83.41
65291;SHT30;51893;59.754;10.110;2023-07-29T02:46:23;15.65;83.35
65291;SHT30;51893;59.754;10.110;2023-07-29T02:48:51;15.63;83.44
65291;SHT30;51893;59.754;10.110;2023-07-29T02:51:19;15.67;83.38
65291;SHT30;51893;59.754;10.110;2023-07-29T02:53:48;15.68;83.32
65291;SHT30;51893;59.754;10.110;2023-07-29T02:56:16;15.68;83.49
65291;SHT30;51893;59.754;10.110;2023-07-29T02:58:44;15.65;83.61
65291;SHT30;51893;59.754;10.110;2023-07-29T03:01:12;15.65;83.52
65291;SHT30;51893;59.754;10.110;2023-07-29T03:03:40;15.69;83.42
65291;SHT30;51893;59.754;10.110;2023-07-29T03:06:11;15.66;83.61
65291;SHT30;51893;59.754;10.110;2023-07-29T03:08:42;15.63;83.75
65291;SHT30;51893;59.754;10.110;2023-07-29T03:11:11;15.59;83.89
65291;SHT30;51893;59.754;10.110;2023-07-29T03:13:43;15.55;83.80
65291;SHT30;51893;59.754;10.110;2023-07-29T03:16:12;15.51;83.69
65291;SHT30;51893;59.754;10.110;2023-07-29T03:18:44;15.52;83.60
65291;SHT30;51893;59.754;10.110;2023-07-29T03:21:12;15.53;83.56
65291;SHT30;51893;59.754;10.110;2023-07-29T03:23:40;15.48;83.61
65291;SHT30;51893;59.754;10.110;2023-07-29T03:26:09;15.50;83.54
65291;SHT30;51893;59.754;10.110;2023-07-29T03:28:41;15.61;83.29
65291;SHT30;51893;59.754;10.110;2023-07-29T03:31:10;15.74;82.86
65291;SHT30;51893;59.754;10.110;2023-07-29T03:33:39;15.70;82.94
65291;SHT30;51893;59.754;10.110;2023-07-29T03:36:08;15.68;83.17
65291;SHT30;51893;59.754;10.110;2023-07-29T03:38:37;15.70;83.10
65291;SHT30;51893;59.754;10.110;2023-07-29T03:41:08;15.68;83.07
65291;SHT30;51893;59.754;10.110;2023-07-29T03:43:37;15.78;82.92
65291;SHT30;51893;59.754;10.110;2023-07-29T03:46:05;15.76;82.95
65291;SHT30;51893;59.754;10.110;2023-07-29T03:48:39;15.79;83.10
65291;SHT30;51893;59.754;10.110;2023-07-29T03:51:07;15.86;83.04
65291;SHT30;51893;59.754;10.110;2023-07-29T03:53:35;15.81;83.25
65291;SHT30;51893;59.754;10.110;2023-07-29T03:56:03;15.72;83.80
65291;SHT30;51893;59.754;10.110;2023-07-29T03:58:32;15.66;84.05
65291;SHT30;51893;59.754;10.110;2023-07-29T04:01:00;15.62;84.10
65291;SHT30;51893;59.754;10.110;2023-07-29T04:03:28;15.56;84.30
65291;SHT30;51893;59.754;10.110;2023-07-29T04:05:56;15.52;84.36
65291;SHT30;51893;59.754;10.110;2023-07-29T04:08:24;15.52;84.32
65291;SHT30;51893;59.754;10.110;2023-07-29T04:10:53;15.56;84.20
65291;SHT30;51893;59.754;10.110;2023-07-29T04:13:22;15.60;84.10
65291;SHT30;51893;59.754;10.110;2023-07-29T04:15:50;15.63;84.11
65291;SHT30;51893;59.754;10.110;2023-07-29T04:18:18;15.64;84.09
65291;SHT30;51893;59.754;10.110;2023-07-29T04:20:46;15.63;84.09
65291;SHT30;51893;59.754;10.110;2023-07-29T04:23:14;15.62;83.95
65291;SHT30;51893;59.754;10.110;2023-07-29T04:25:43;15.63;83.77
65291;SHT30;51893;59.754;10.110;2023-07-29T04:28:11;15.69;83.50
65291;SHT30;51893;59.754;10.110;2023-07-29T04:30:39;15.75;83.39
65291;SHT30;51893;59.754;10.110;2023-07-29T04:33:07;15.79;83.33
65291;SHT30;51893;59.754;10.110;2023-07-29T04:35:35;15.83;83.27
65291;SHT30;51893;59.754;10.110;2023-07-29T04:38:03;15.85;83.16
65291;SHT30;51893;59.754;10.110;2023-07-29T04:40:32;15.91;82.99
65291;SHT30;51893;59.754;10.110;2023-07-29T04:43:01;15.97;82.72
65291;SHT30;51893;59.754;10.110;2023-07-29T04:45:31;16.01;82.76
65291;SHT30;51893;59.754;10.110;2023-07-29T04:47:59;16.04;82.56
65291;SHT30;51893;59.754;10.110;2023-07-29T04:50:27;16.08;82.16
65291;SHT30;51893;59.754;10.110;2023-07-29T04:52:55;16.06;81.83
65291;SHT30;51893;59.754;10.110;2023-07-29T04:55:23;16.07;81.80
65291;SHT30;51893;59.754;10.110;2023-07-29T04:57:51;16.10;81.67
65291;SHT30;51893;59.754;10.110;2023-07-29T05:00:20;16.07;81.51
65291;SHT30;51893;59.754;10.110;2023-07-29T05:02:48;16.02;81.59
65291;SHT30;51893;59.754;10.110;2023-07-29T05:05:19;16.03;81.63
65291;SHT30;51893;59.754;10.110;2023-07-29T05:07:47;16.05;81.70
65291;SHT30;51893;59.754;10.110;2023-07-29T05:10:15;16.12;81.68
65291;SHT30;51893;59.754;10.110;2023-07-29T05:12:43;16.19;81.54
65291;SHT30;51893;59.754;10.110;2023-07-29T05:15:12;16.26;81.33
65291;SHT30;51893;59.754;10.110;2023-07-29T05:17:40;16.29;81.19
65291;SHT30;51893;59.754;10.110;2023-07-29T05:20:08;16.33;81.00
65291;SHT30;51893;59.754;10.110;2023-07-29T05:22:37;16.39;81.01
65291;SHT30;51893;59.754;10.110;2023-07-29T05:25:05;16.46;81.14
65291;SHT30;51893;59.754;10.110;2023-07-29T05:27:34;16.48;81.15
65291;SHT30;51893;59.754;10.110;2023-07-29T05:30:02;16.51;81.09
65291;SHT30;51893;59.754;10.110;2023-07-29T05:32:31;16.57;80.90
65291;SHT30;51893;59.754;10.110;2023-07-29T05:34:59;16.63;80.76
65291;SHT30;51893;59.754;10.110;2023-07-29T05:37:27;16.66;80.68
65291;SHT30;51893;59.754;10.110;2023-07-29T05:39:56;16.71;80.70
65291;SHT30;51893;59.754;10.110;2023-07-29T05:42:24;16.71;80.61
65291;SHT30;51893;59.754;10.110;2023-07-29T05:44:53;16.75;80.62
65291;SHT30;51893;59.754;10.110;2023-07-29T05:47:21;16.79;80.71
65291;SHT30;51893;59.754;10.110;2023-07-29T05:49:49;16.87;80.87
65291;SHT30;51893;59.754;10.110;2023-07-29T05:52:16;16.92;80.92
65291;SHT30;51893;59.754;10.110;2023-07-29T05:54:44;16.94;80.82
65291;SHT30;51893;59.754;10.110;2023-07-29T05:57:12;16.96;80.46
65291;SHT30;51893;59.754;10.110;2023-07-29T05:59:40;17.01;80.20
65291;SHT30;51893;59.754;10.110;2023-07-29T06:02:09;17.06;80.20
65291;SHT30;51893;59.754;10.110;2023-07-29T06:04:37;17.06;80.09
65291;SHT30;51893;59.754;10.110;2023-07-29T06:07:05;17.03;79.71
65291;SHT30;51893;59.754;10.110;2023-07-29T06:09:34;17.01;79.51
65291;SHT30;51893;59.754;10.110;2023-07-29T06:12:02;17.04;79.38
65291;SHT30;51893;59.754;10.110;2023-07-29T06:14:30;17.05;79.61
65291;SHT30;51893;59.754;10.110;2023-07-29T06:16:58;17.04;79.60
65291;SHT30;51893;59.754;10.110;2023-07-29T06:19:26;17.03;79.63
65291;SHT30;51893;59.754;10.110;2023-07-29T06:21:55;17.01;79.75
65291;SHT30;51893;59.754;10.110;2023-07-29T06:24:23;17.01;79.80
65291;SHT30;51893;59.754;10.110;2023-07-29T06:26:52;17.02;79.80
65291;SHT30;51893;59.754;10.110;2023-07-29T06:29:20;17.03;79.81
65291;SHT30;51893;59.754;10.110;2023-07-29T06:31:48;17.10;79.59
65291;SHT30;51893;59.754;10.110;2023-07-29T06:34:16;17.18;79.29
65291;SHT30;51893;59.754;10.110;2023-07-29T06:36:45;17.23;79.36
65291;SHT30;51893;59.754;10.110;2023-07-29T06:39:13;17.26;79.32
65291;SHT30;51893;59.754;10.110;2023-07-29T06:41:41;17.32;79.21
65291;SHT30;51893;59.754;10.110;2023-07-29T06:44:10;17.40;79.19
65291;SHT30;51893;59.754;10.110;2023-07-29T06:46:38;17.39;78.62
65291;SHT30;51893;59.754;10.110;2023-07-29T06:49:07;17.42;78.34
65291;SHT30;51893;59.754;10.110;2023-07-29T06:51:36;17.50;78.07
65291;SHT30;51893;59.754;10.110;2023-07-29T06:54:04;17.60;77.85
65291;SHT30;51893;59.754;10.110;2023-07-29T06:56:32;17.71;77.50
65291;SHT30;51893;59.754;10.110;2023-07-29T06:59:00;17.79;77.01
65291;SHT30;51893;59.754;10.110;2023-07-29T07:01:30;17.88;76.79
65291;SHT30;51893;59.754;10.110;2023-07-29T07:03:59;17.89;75.99
65291;SHT30;51893;59.754;10.110;2023-07-29T07:06:27;17.95;76.08
65291;SHT30;51893;59.754;10.110;2023-07-29T07:08:54;18.08;75.72
65291;SHT30;51893;59.754;10.110;2023-07-29T07:11:22;18.15;75.06
65291;SHT30;51893;59.754;10.110;2023-07-29T07:13:52;18.22;74.88
65291;SHT30;51893;59.754;10.110;2023-07-29T07:16:20;18.31;74.56
65291;SHT30;51893;59.754;10.110;2023-07-29T07:18:48;18.37;74.48
65291;SHT30;51893;59.754;10.110;2023-07-29T07:21:16;18.33;74.17
65291;SHT30;51893;59.754;10.110;2023-07-29T07:23:44;18.28;73.81
65291;SHT30;51893;59.754;10.110;2023-07-29T07:26:13;18.26;73.39
65291;SHT30;51893;59.754;10.110;2023-07-29T07:28:41;18.28;73.46
65291;SHT30;51893;59.754;10.110;2023-07-29T07:31:09;18.35;73.37
65291;SHT30;51893;59.754;10.110;2023-07-29T07:33:37;18.40;73.11
65291;SHT30;51893;59.754;10.110;2023-07-29T07:36:05;18.47;73.32
65291;SHT30;51893;59.754;10.110;2023-07-29T07:38:33;18.52;72.86
65291;SHT30;51893;59.754;10.110;2023-07-29T07:41:01;18.54;72.31
65291;SHT30;51893;59.754;10.110;2023-07-29T07:43:33;18.55;72.44
65291;SHT30;51893;59.754;10.110;2023-07-29T07:46:03;18.62;72.55
65291;SHT30;51893;59.754;10.110;2023-07-29T07:48:31;18.72;72.33
65291;SHT30;51893;59.754;10.110;2023-07-29T07:51:04;18.70;71.63
65291;SHT30;51893;59.754;10.110;2023-07-29T07:53:38;18.65;71.84
65291;SHT30;51893;59.754;10.110;2023-07-29T07:56:07;18.69;71.51
65291;SHT30;51893;59.754;10.110;2023-07-29T07:58:36;18.78;71.83
65291;SHT30;51893;59.754;10.110;2023-07-29T08:01:04;18.83;71.17
65291;SHT30;51893;59.754;10.110;2023-07-29T08:03:35;18.85;71.15
65291;SHT30;51893;59.754;10.110;2023-07-29T08:06:04;18.90;70.74
65291;SHT30;51893;59.754;10.110;2023-07-29T08:08:36;18.88;70.49
65291;SHT30;51893;59.754;10.110;2023-07-29T08:11:04;18.85;70.66
65291;SHT30;51893;59.754;10.110;2023-07-29T08:13:32;18.84;70.76
65291;SHT30;51893;59.754;10.110;2023-07-29T08:16:00;18.82;70.56
65291;SHT30;51893;59.754;10.110;2023-07-29T08:18:28;18.85;70.51
65291;SHT30;51893;59.754;10.110;2023-07-29T08:20:57;18.99;70.73
65291;SHT30;51893;59.754;10.110;2023-07-29T08:23:31;19.12;70.49
65291;SHT30;51893;59.754;10.110;2023-07-29T08:26:04;19.24;69.75
65291;SHT30;51893;59.754;10.110;2023-07-29T08:28:36;19.36;69.74
65291;SHT30;51893;59.754;10.110;2023-07-29T08:31:08;19.42;68.92
65291;SHT30;51893;59.754;10.110;2023-07-29T08:33:36;19.45;69.10
65291;SHT30;51893;59.754;10.110;2023-07-29T08:36:04;19.51;69.14
65291;SHT30;51893;59.754;10.110;2023-07-29T08:38:32;19.65;69.39
65291;SHT30;51893;59.754;10.110;2023-07-29T08:41:06;19.75;69.18
65291;SHT30;51893;59.754;10.110;2023-07-29T08:43:50;19.86;68.66
65291;SHT30;51893;59.754;10.110;2023-07-29T08:46:29;19.83;68.25
65291;SHT30;51893;59.754;10.110;2023-07-29T08:49:00;19.78;68.49
65291;SHT30;51893;59.754;10.110;2023-07-29T08:51:30;19.83;68.78
65291;SHT30;51893;59.754;10.110;2023-07-29T08:53:59;19.95;68.61
65291;SHT30;51893;59.754;10.110;2023-07-29T08:56:28;20.14;68.68
65291;SHT30;51893;59.754;10.110;2023-07-29T08:58:58;20.26;68.10
65291;SHT30;51893;59.754;10.110;2023-07-29T09:01:31;20.39;67.58
65291;SHT30;51893;59.754;10.110;2023-07-29T09:04:00;20.44;67.54
65291;SHT30;51893;59.754;10.110;2023-07-29T09:06:28;20.59;67.39
65291;SHT30;51893;59.754;10.110;2023-07-29T09:08:56;20.66;66.47
65291;SHT30;51893;59.754;10.110;2023-07-29T09:11:30;20.67;66.25
65291;SHT30;51893;59.754;10.110;2023-07-29T09:13:58;20.69;66.46
65291;SHT30;51893;59.754;10.110;2023-07-29T09:16:26;20.68;65.82
65291;SHT30;51893;59.754;10.110;2023-07-29T09:18:55;20.73;66.08
65291;SHT30;51893;59.754;10.110;2023-07-29T09:21:24;20.82;65.95
65291;SHT30;51893;59.754;10.110;2023-07-29T09:23:54;20.87;66.44
65291;SHT30;51893;59.754;10.110;2023-07-29T09:26:24;20.96;66.35
65291;SHT30;51893;59.754;10.110;2023-07-29T09:28:56;21.03;65.76
65291;SHT30;51893;59.754;10.110;2023-07-29T09:31:26;21.02;65.42
65291;SHT30;51893;59.754;10.110;2023-07-29T09:33:57;21.02;65.27
65291;SHT30;51893;59.754;10.110;2023-07-29T09:36:30;21.14;65.59
65291;SHT30;51893;59.754;10.110;2023-07-29T09:39:00;21.23;65.54
65291;SHT30;51893;59.754;10.110;2023-07-29T09:41:29;21.31;65.18
65291;SHT30;51893;59.754;10.110;2023-07-29T09:44:02;21.30;64.65
65291;SHT30;51893;59.754;10.110;2023-07-29T09:46:33;21.26;64.20
65291;SHT30;51893;59.754;10.110;2023-07-29T09:49:05;21.25;64.50
65291;SHT30;51893;59.754;10.110;2023-07-29T09:51:38;21.31;64.53
65291;SHT30;51893;59.754;10.110;2023-07-29T09:54:10;21.45;64.46
65291;SHT30;51893;59.754;10.110;2023-07-29T09:56:41;21.59;63.79
65291;SHT30;51893;59.754;10.110;2023-07-29T09:59:12;21.59;63.23
65291;SHT30;51893;59.754;10.110;2023-07-29T10:01:40;21.74;63.40
65291;SHT30;51893;59.754;10.110;2023-07-29T10:04:09;21.85;62.84
65291;SHT30;51893;59.754;10.110;2023-07-29T10:06:41;21.90;62.65
65291;SHT30;51893;59.754;10.110;2023-07-29T10:09:11;21.95;62.42
65291;SHT30;51893;59.754;10.110;2023-07-29T10:11:40;22.08;62.32
65291;SHT30;51893;59.754;10.110;2023-07-29T10:14:10;22.18;62.28
65291;SHT30;51893;59.754;10.110;2023-07-29T10:16:39;22.26;61.89
65291;SHT30;51893;59.754;10.110;2023-07-29T10:19:10;22.34;62.25
65291;SHT30;51893;59.754;10.110;2023-07-29T10:21:42;22.41;61.58
65291;SHT30;51893;59.754;10.110;2023-07-29T10:24:16;22.41;60.92
65291;SHT30;51893;59.754;10.110;2023-07-29T10:26:51;22.35;60.66
65291;SHT30;51893;59.754;10.110;2023-07-29T10:29:19;22.36;61.15
65291;SHT30;51893;59.754;10.110;2023-07-29T10:31:52;22.49;61.15
65291;SHT30;51893;59.754;10.110;2023-07-29T10:34:21;22.61;60.85
65291;SHT30;51893;59.754;10.110;2023-07-29T10:36:51;22.70;61.20
65291;SHT30;51893;59.754;10.110;2023-07-29T10:39:21;22.82;60.72
65291;SHT30;51893;59.754;10.110;2023-07-29T10:41:57;22.86;59.87
65291;SHT30;51893;59.754;10.110;2023-07-29T10:47:17;22.94;59.63
65291;SHT30;51893;59.754;10.110;2023-07-29T10:49:49;22.99;59.70
65291;SHT30;51893;59.754;10.110;2023-07-29T10:55:24;23.26;59.07
65291;SHT30;51893;59.754;10.110;2023-07-29T10:58:06;23.39;58.92
65291;SHT30;51893;59.754;10.110;2023-07-29T11:00:45;23.51;58.71
65291;SHT30;51893;59.754;10.110;2023-07-29T11:03:13;23.52;58.90
65291;SHT30;51893;59.754;10.110;2023-07-29T11:05:52;23.61;58.86
65291;SHT30;51893;59.754;10.110;2023-07-29T11:13:32;23.83;57.74
65291;SHT30;51893;59.754;10.110;2023-07-29T11:16:04;23.88;58.26
65291;SHT30;51893;59.754;10.110;2023-07-29T11:18:34;23.99;57.75
65291;SHT30;51893;59.754;10.110;2023-07-29T11:21:04;24.00;57.78
65291;SHT30;51893;59.754;10.110;2023-07-29T11:23:35;24.10;57.91
65291;SHT30;51893;59.754;10.110;2023-07-29T11:26:04;24.09;57.45
65291;SHT30;51893;59.754;10.110;2023-07-29T11:28:37;24.15;57.55
65291;SHT30;51893;59.754;10.110;2023-07-29T11:31:08;24.30;57.10
65291;SHT30;51893;59.754;10.110;2023-07-29T11:33:38;24.37;56.82
65291;SHT30;51893;59.754;10.110;2023-07-29T11:36:06;24.41;56.48
65291;SHT30;51893;59.754;10.110;2023-07-29T11:38:47;24.51;56.12
65291;SHT30;51893;59.754;10.110;2023-07-29T11:41:18;24.60;56.29
65291;SHT30;51893;59.754;10.110;2023-07-29T11:43:51;24.35;55.61
65291;SHT30;51893;59.754;10.110;2023-07-29T11:46:20;24.18;56.62
65291;SHT30;51893;59.754;10.110;2023-07-29T11:48:50;24.17;56.84
65291;SHT30;51893;59.754;10.110;2023-07-29T11:51:19;24.22;56.93
65291;SHT30;51893;59.754;10.110;2023-07-29T11:53:47;24.32;56.51
65291;SHT30;51893;59.754;10.110;2023-07-29T11:56:16;24.37;56.55
65291;SHT30;51893;59.754;10.110;2023-07-29T11:58:44;24.44;56.41
65291;SHT30;51893;59.754;10.110;2023-07-29T12:01:12;24.50;56.12
65291;SHT30;51893;59.754;10.110;2023-07-29T12:03:40;24.59;55.68
65291;SHT30;51893;59.754;10.110;2023-07-29T12:06:11;24.66;55.11
65291;SHT30;51893;59.754;10.110;2023-07-29T12:08:40;24.72;54.89
65291;SHT30;51893;59.754;10.110;2023-07-29T12:11:09;24.69;54.46
65291;SHT30;51893;59.754;10.110;2023-07-29T12:13:41;24.63;54.07
65291;SHT30;51893;59.754;10.110;2023-07-29T12:16:10;24.63;54.51
65291;SHT30;51893;59.754;10.110;2023-07-29T12:18:45;24.73;54.54
65291;SHT30;51893;59.754;10.110;2023-07-29T12:21:17;24.87;53.63
65291;SHT30;51893;59.754;10.110;2023-07-29T12:23:47;24.89;53.73
65291;SHT30;51893;59.754;10.110;2023-07-29T12:26:17;25.07;53.67
65291;SHT30;51893;59.754;10.110;2023-07-29T12:28:48;24.99;53.38
65291;SHT30;51893;59.754;10.110;2023-07-29T12:31:16;25.06;53.82
65291;SHT30;51893;59.754;10.110;2023-07-29T12:33:44;25.11;53.37
65291;SHT30;51893;59.754;10.110;2023-07-29T12:36:13;24.99;53.83
65291;SHT30;51893;59.754;10.110;2023-07-29T12:38:42;24.91;53.89
65291;SHT30;51893;59.754;10.110;2023-07-29T12:41:13;25.14;54.00
65291;SHT30;51893;59.754;10.110;2023-07-29T12:43:41;25.20;53.70
65291;SHT30;51893;59.754;10.110;2023-07-29T12:46:09;25.32;53.70
65291;SHT30;51893;59.754;10.110;2023-07-29T12:48:37;25.47;53.05
65291;SHT30;51893;59.754;10.110;2023-07-29T12:51:06;25.52;53.13
65291;SHT30;51893;59.754;10.110;2023-07-29T12:53:33;25.44;52.80
65291;SHT30;51893;59.754;10.110;2023-07-29T12:56:01;25.15;52.83
65291;SHT30;51893;59.754;10.110;2023-07-29T12:58:30;24.94;53.07
65291;SHT30;51893;59.754;10.110;2023-07-29T13:00:58;24.93;53.65
65291;SHT30;51893;59.754;10.110;2023-07-29T13:03:26;24.82;53.84
65291;SHT30;51893;59.754;10.110;2023-07-29T13:05:55;24.75;53.98
65291;SHT30;51893;59.754;10.110;2023-07-29T13:08:23;24.98;53.88
65291;SHT30;51893;59.754;10.110;2023-07-29T13:10:51;25.13;53.58
65291;SHT30;51893;59.754;10.110;2023-07-29T13:13:19;25.34;54.41
65291;SHT30;51893;59.754;10.110;2023-07-29T13:15:48;25.59;53.83
65291;SHT30;51893;59.754;10.110;2023-07-29T13:18:16;25.79;53.69
65291;SHT30;51893;59.754;10.110;2023-07-29T13:20:45;25.93;53.43
65291;SHT30;51893;59.754;10.110;2023-07-29T13:23:13;26.08;52.60
65291;SHT30;51893;59.754;10.110;2023-07-29T13:25:40;26.06;51.82
65291;SHT30;51893;59.754;10.110;2023-07-29T13:28:10;26.00;52.27
65291;SHT30;51893;59.754;10.110;2023-07-29T13:30:39;26.07;52.53
65291;SHT30;51893;59.754;10.110;2023-07-29T13:33:07;26.17;52.51
65291;SHT30;51893;59.754;10.110;2023-07-29T13:35:36;26.31;52.07
65291;SHT30;51893;59.754;10.110;2023-07-29T13:38:04;26.41;51.89
65291;SHT30;51893;59.754;10.110;2023-07-29T13:40:32;26.47;52.09
65291;SHT30;51893;59.754;10.110;2023-07-29T13:43:05;26.47;51.28
65291;SHT30;51893;59.754;10.110;2023-07-29T13:45:34;26.03;51.27
65291;SHT30;51893;59.754;10.110;2023-07-29T13:48:02;25.45;52.18
65291;SHT30;51893;59.754;10.110;2023-07-29T13:50:31;24.99;53.29
65291;SHT30;51893;59.754;10.110;2023-07-29T13:52:59;24.73;53.91
65291;SHT30;51893;59.754;10.110;2023-07-29T13:55:26;24.87;54.35
65291;SHT30;51893;59.754;10.110;2023-07-29T13:57:55;25.25;54.25
65291;SHT30;51893;59.754;10.110;2023-07-29T14:00:23;25.52;53.44
65291;SHT30;51893;59.754;10.110;2023-07-29T14:02:51;25.68;52.53
65291;SHT30;51893;59.754;10.110;2023-07-29T14:05:21;25.77;51.65
65291;SHT30;51893;59.754;10.110;2023-07-29T14:07:49;25.90;52.07
65291;SHT30;51893;59.754;10.110;2023-07-29T14:10:16;25.90;52.49
65291;SHT30;51893;59.754;10.110;2023-07-29T14:12:45;25.96;52.21
65291;SHT30;51893;59.754;10.110;2023-07-29T14:15:13;25.94;52.21
65291;SHT30;51893;59.754;10.110;2023-07-29T14:17:43;25.99;52.10
65291;SHT30;51893;59.754;10.110;2023-07-29T14:20:11;25.77;51.76
65291;SHT30;51893;59.754;10.110;2023-07-29T14:22:40;25.31;52.00
65291;SHT30;51893;59.754;10.110;2023-07-29T14:25:08;25.03;52.65
65291;SHT30;51893;59.754;10.110;2023-07-29T14:27:36;24.64;53.27
65291;SHT30;51893;59.754;10.110;2023-07-29T14:30:04;24.44;53.87
65291;SHT30;51893;59.754;10.110;2023-07-29T14:32:34;24.45;54.12
65291;SHT30;51893;59.754;10.110;2023-07-29T14:35:02;24.60;54.17
65291;SHT30;51893;59.754;10.110;2023-07-29T14:37:31;24.79;53.78
65291;SHT30;51893;59.754;10.110;2023-07-29T14:39:59;25.08;53.51
65291;SHT30;51893;59.754;10.110;2023-07-29T14:42:29;25.26;52.76
65291;SHT30;51893;59.754;10.110;2023-07-29T14:44:59;25.40;52.57
65291;SHT30;51893;59.754;10.110;2023-07-29T14:47:28;25.55;52.46
65291;SHT30;51893;59.754;10.110;2023-07-29T14:50:00;25.68;51.71
65291;SHT30;51893;59.754;10.110;2023-07-29T14:52:28;25.84;51.66
65291;SHT30;51893;59.754;10.110;2023-07-29T14:54:56;25.61;50.33
65291;SHT30;51893;59.754;10.110;2023-07-29T14:57:24;25.24;50.63
65291;SHT30;51893;59.754;10.110;2023-07-29T14:59:52;25.06;51.27
65291;SHT30;51893;59.754;10.110;2023-07-29T15:02:20;25.22;51.83
65291;SHT30;51893;59.754;10.110;2023-07-29T15:04:50;25.25;51.32
65291;SHT30;51893;59.754;10.110;2023-07-29T15:07:18;25.08;50.93
65291;SHT30;51893;59.754;10.110;2023-07-29T15:09:47;25.08;51.34
65291;SHT30;51893;59.754;10.110;2023-07-29T15:12:15;25.26;51.05
65291;SHT30;51893;59.754;10.110;2023-07-29T15:14:43;25.31;51.21
65291;SHT30;51893;59.754;10.110;2023-07-29T15:17:12;25.23;51.01
65291;SHT30;51893;59.754;10.110;2023-07-29T15:19:40;25.05;51.12
65291;SHT30;51893;59.754;10.110;2023-07-29T15:22:08;24.98;51.12
65291;SHT30;51893;59.754;10.110;2023-07-29T15:24:36;25.08;51.27
65291;SHT30;51893;59.754;10.110;2023-07-29T15:27:06;25.37;50.84
65291;SHT30;51893;59.754;10.110;2023-07-29T15:29:34;25.57;50.51
65291;SHT30;51893;59.754;10.110;2023-07-29T15:32:03;25.74;49.99
65291;SHT30;51893;59.754;10.110;2023-07-29T15:34:31;25.83;49.76
65291;SHT30;51893;59.754;10.110;2023-07-29T15:36:59;25.82;49.66
65291;SHT30;51893;59.754;10.110;2023-07-29T15:39:27;25.82;49.74
65291;SHT30;51893;59.754;10.110;2023-07-29T15:41:56;25.92;49.79
65291;SHT30;51893;59.754;10.110;2023-07-29T15:44:25;25.90;49.79
65291;SHT30;51893;59.754;10.110;2023-07-29T15:46:53;25.86;49.63